sensor_id;sensor_type;location;lat;lon;timestamp;P1;durP1;ratioP1;P2;durP2;ratioP2
20090;SDS011;10205;49.678;6.560;2023-09-30T00:00:31;1.13;;;1.00;;
20090;SDS011;10205;49.678;6.560;2023-09-30T00:03:00;1.48;;;1.20;;
20090;SDS011;10205;49.678;6.560;2023-09-30T00:05:27;1.35;;;0.90;;
20090;SDS011;10205;49.678;6.560;2023-09-30T00:07:54;1.30;;;1.20;;
20090;SDS011;10205;49.678;6.560;2023-09-30T00:10:21;1.58;;;1.10;;
20090;SDS011;10205;49.678;6.560;2023-09-30T00:12:49;1.33;;;1.23;;
20090;SDS011;10205;49.678;6.560;2023-09-30T00:15:16;2.65;;;1.30;;
20090;SDS011;10205;49.678;6.560;2023-09-30T00:17:44;1.73;;;1.40;;
20090;SDS011;10205;49.678;6.560;2023-09-30T00:20:12;1.90;;;1.27;;
20090;SDS011;10205;49.678;6.560;2023-09-30T00:22:40;1.40;;;1.30;;
20090;SDS011;10205;49.678;6.560;2023-09-30T00:25:08;1.73;;;1.13;;
20090;SDS011;10205;49.678;6.560;2023-09-30T00:27:36;1.63;;;1.27;;
20090;SDS011;10205;49.678;6.560;2023-09-30T00:30:03;2.10;;;1.42;;
20090;SDS011;10205;49.678;6.560;2023-09-30T00:32:32;1.15;;;1.05;;
20090;SDS011;10205;49.678;6.560;2023-09-30T00:35:00;1.67;;;1.17;;
20090;SDS011;10205;49.678;6.560;2023-09-30T00:37:29;1.55;;;1.30;;
20090;SDS011;10205;49.678;6.560;2023-09-30T00:39:57;1.15;;;1.05;;
20090;SDS011;10205;49.678;6.560;2023-09-30T00:42:24;1.98;;;1.38;;
20090;SDS011;10205;49.678;6.560;2023-09-30T00:44:51;1.45;;;1.10;;
20090;SDS011;10205;49.678;6.560;2023-09-30T00:47:19;1.48;;;1.27;;
20090;SDS011;10205;49.678;6.560;2023-09-30T00:49:46;1.27;;;1.05;;
20090;SDS011;10205;49.678;6.560;2023-09-30T00:52:15;1.67;;;1.33;;
20090;SDS011;10205;49.678;6.560;2023-09-30T00:54:45;1.58;;;1.20;;
20090;SDS011;10205;49.678;6.560;2023-09-30T00:57:13;1.40;;;1.05;;
20090;SDS011;10205;49.678;6.560;2023-09-30T00:59:41;1.48;;;1.13;;
20090;SDS011;10205;49.678;6.560;2023-09-30T01:02:09;2.53;;;1.40;;
20090;SDS011;10205;49.678;6.560;2023-09-30T01:04:36;1.35;;;1.08;;
20090;SDS011;10205;49.678;6.560;2023-09-30T01:07:05;1.98;;;1.17;;
20090;SDS011;10205;49.678;6.560;2023-09-30T01:09:32;2.88;;;1.10;;
20090;SDS011;10205;49.678;6.560;2023-09-30T01:12:04;1.40;;;1.20;;
20090;SDS011;10205;49.678;6.560;2023-09-30T01:14:33;1.42;;;1.00;;
20090;SDS011;10205;49.678;6.560;2023-09-30T01:17:03;1.40;;;1.30;;
20090;SDS011;10205;49.678;6.560;2023-09-30T01:19:33;2.45;;;1.35;;
20090;SDS011;10205;49.678;6.560;2023-09-30T01:22:02;1.60;;;1.15;;
20090;SDS011;10205;49.678;6.560;2023-09-30T01:24:29;1.38;;;1.23;;
20090;SDS011;10205;49.678;6.560;2023-09-30T01:26:56;2.25;;;1.10;;
20090;SDS011;10205;49.678;6.560;2023-09-30T01:29:24;1.05;;;0.98;;
20090;SDS011;10205;49.678;6.560;2023-09-30T01:31:51;4.00;;;1.20;;
20090;SDS011;10205;49.678;6.560;2023-09-30T01:34:18;2.08;;;1.27;;
20090;SDS011;10205;49.678;6.560;2023-09-30T01:36:45;1.85;;;1.20;;
20090;SDS011;10205;49.678;6.560;2023-09-30T01:39:14;1.80;;;1.15;;
20090;SDS011;10205;49.678;6.560;2023-09-30T01:41:42;1.60;;;1.40;;
20090;SDS011;10205;49.678;6.560;2023-09-30T01:44:09;1.65;;;1.10;;
20090;SDS011;10205;49.678;6.560;2023-09-30T01:46:36;1.40;;;1.20;;
20090;SDS011;10205;49.678;6.560;2023-09-30T01:49:04;1.30;;;1.10;;
20090;SDS011;10205;49.678;6.560;2023-09-30T01:51:31;2.17;;;1.30;;
20090;SDS011;10205;49.678;6.560;2023-09-30T01:53:59;1.10;;;1.00;;
20090;SDS011;10205;49.678;6.560;2023-09-30T01:56:27;1.70;;;1.40;;
20090;SDS011;10205;49.678;6.560;2023-09-30T01:58:56;1.67;;;1.40;;
20090;SDS011;10205;49.678;6.560;2023-09-30T02:01:25;1.75;;;1.25;;
20090;SDS011;10205;49.678;6.560;2023-09-30T02:03:52;2.78;;;1.42;;
20090;SDS011;10205;49.678;6.560;2023-09-30T02:06:19;1.40;;;1.30;;
20090;SDS011;10205;49.678;6.560;2023-09-30T02:08:46;1.70;;;1.30;;
20090;SDS011;10205;49.678;6.560;2023-09-30T02:11:14;2.20;;;1.60;;
20090;SDS011;10205;49.678;6.560;2023-09-30T02:13:43;1.33;;;1.15;;
20090;SDS011;10205;49.678;6.560;2023-09-30T02:16:13;1.88;;;1.48;;
20090;SDS011;10205;49.678;6.560;2023-09-30T02:18:41;2.28;;;1.58;;
20090;SDS011;10205;49.678;6.560;2023-09-30T02:21:10;1.73;;;1.25;;
20090;SDS011;10205;49.678;6.560;2023-09-30T02:23:37;1.70;;;1.30;;
20090;SDS011;10205;49.678;6.560;2023-09-30T02:26:04;1.38;;;1.27;;
20090;SDS011;10205;49.678;6.560;2023-09-30T02:28:31;1.10;;;1.00;;
20090;SDS011;10205;49.678;6.560;2023-09-30T02:31:00;2.60;;;1.40;;
20090;SDS011;10205;49.678;6.560;2023-09-30T02:33:28;2.97;;;1.27;;
20090;SDS011;10205;49.678;6.560;2023-09-30T02:35:55;2.15;;;1.25;;
20090;SDS011;10205;49.678;6.560;2023-09-30T02:38:22;2.83;;;1.50;;
20090;SDS011;10205;49.678;6.560;2023-09-30T02:40:50;1.20;;;1.10;;
20090;SDS011;10205;49.678;6.560;2023-09-30T02:43:17;1.85;;;1.52;;
20090;SDS011;10205;49.678;6.560;2023-09-30T02:45:45;1.88;;;1.38;;
20090;SDS011;10205;49.678;6.560;2023-09-30T02:48:13;1.73;;;1.20;;
20090;SDS011;10205;49.678;6.560;2023-09-30T02:50:41;2.15;;;1.38;;
20090;SDS011;10205;49.678;6.560;2023-09-30T02:53:11;1.55;;;1.30;;
20090;SDS011;10205;49.678;6.560;2023-09-30T02:55:38;1.23;;;1.13;;
20090;SDS011;10205;49.678;6.560;2023-09-30T02:58:06;1.40;;;1.30;;
20090;SDS011;10205;49.678;6.560;2023-09-30T03:00:33;2.03;;;1.25;;
20090;SDS011;10205;49.678;6.560;2023-09-30T03:03:03;1.73;;;1.30;;
20090;SDS011;10205;49.678;6.560;2023-09-30T03:05:32;2.08;;;1.73;;
20090;SDS011;10205;49.678;6.560;2023-09-30T03:07:59;1.52;;;1.27;;
20090;SDS011;10205;49.678;6.560;2023-09-30T03:10:27;1.60;;;1.30;;
20090;SDS011;10205;49.678;6.560;2023-09-30T03:12:54;1.33;;;1.23;;
20090;SDS011;10205;49.678;6.560;2023-09-30T03:15:26;2.42;;;1.58;;
20090;SDS011;10205;49.678;6.560;2023-09-30T03:17:56;2.00;;;1.23;;
20090;SDS011;10205;49.678;6.560;2023-09-30T03:20:23;1.33;;;1.23;;
20090;SDS011;10205;49.678;6.560;2023-09-30T03:22:52;1.65;;;1.40;;
20090;SDS011;10205;49.678;6.560;2023-09-30T03:25:19;1.73;;;1.40;;
20090;SDS011;10205;49.678;6.560;2023-09-30T03:27:47;2.03;;;1.30;;
20090;SDS011;10205;49.678;6.560;2023-09-30T03:30:16;1.75;;;1.40;;
20090;SDS011;10205;49.678;6.560;2023-09-30T03:32:45;2.42;;;1.38;;
20090;SDS011;10205;49.678;6.560;2023-09-30T03:35:12;1.15;;;1.02;;
20090;SDS011;10205;49.678;6.560;2023-09-30T03:37:42;2.15;;;1.50;;
20090;SDS011;10205;49.678;6.560;2023-09-30T03:40:12;1.45;;;1.30;;
20090;SDS011;10205;49.678;6.560;2023-09-30T03:42:43;1.33;;;1.10;;
20090;SDS011;10205;49.678;6.560;2023-09-30T03:45:14;1.50;;;1.40;;
20090;SDS011;10205;49.678;6.560;2023-09-30T03:47:42;1.50;;;1.30;;
20090;SDS011;10205;49.678;6.560;2023-09-30T03:50:10;1.65;;;1.40;;
20090;SDS011;10205;49.678;6.560;2023-09-30T03:52:40;1.48;;;1.38;;
20090;SDS011;10205;49.678;6.560;2023-09-30T03:55:09;1.25;;;1.10;;
20090;SDS011;10205;49.678;6.560;2023-09-30T03:57:40;1.60;;;1.40;;
20090;SDS011;10205;49.678;6.560;2023-09-30T04:00:08;1.42;;;1.10;;
20090;SDS011;10205;49.678;6.560;2023-09-30T04:02:41;2.20;;;1.38;;
20090;SDS011;10205;49.678;6.560;2023-09-30T04:05:08;1.58;;;1.48;;
20090;SDS011;10205;49.678;6.560;2023-09-30T04:07:39;2.08;;;1.40;;
20090;SDS011;10205;49.678;6.560;2023-09-30T04:10:07;2.08;;;1.60;;
20090;SDS011;10205;49.678;6.560;2023-09-30T04:12:37;2.40;;;1.60;;
20090;SDS011;10205;49.678;6.560;2023-09-30T04:15:05;2.28;;;1.42;;
20090;SDS011;10205;49.678;6.560;2023-09-30T04:17:37;2.65;;;1.70;;
20090;SDS011;10205;49.678;6.560;2023-09-30T04:20:04;1.60;;;1.50;;
20090;SDS011;10205;49.678;6.560;2023-09-30T04:22:35;1.65;;;1.45;;
20090;SDS011;10205;49.678;6.560;2023-09-30T04:25:03;2.22;;;1.52;;
20090;SDS011;10205;49.678;6.560;2023-09-30T04:27:34;1.35;;;1.08;;
20090;SDS011;10205;49.678;6.560;2023-09-30T04:30:03;1.42;;;1.20;;
20090;SDS011;10205;49.678;6.560;2023-09-30T04:32:34;1.80;;;1.20;;
20090;SDS011;10205;49.678;6.560;2023-09-30T04:35:02;1.35;;;1.08;;
20090;SDS011;10205;49.678;6.560;2023-09-30T04:37:29;1.60;;;1.08;;
20090;SDS011;10205;49.678;6.560;2023-09-30T04:39:57;1.40;;;1.30;;
20090;SDS011;10205;49.678;6.560;2023-09-30T04:42:24;1.90;;;1.70;;
20090;SDS011;10205;49.678;6.560;2023-09-30T04:44:51;2.60;;;1.48;;
20090;SDS011;10205;49.678;6.560;2023-09-30T04:47:20;1.27;;;1.17;;
20090;SDS011;10205;49.678;6.560;2023-09-30T04:49:49;1.60;;;1.42;;
20090;SDS011;10205;49.678;6.560;2023-09-30T04:52:16;1.30;;;1.20;;
20090;SDS011;10205;49.678;6.560;2023-09-30T04:54:43;1.58;;;1.45;;
20090;SDS011;10205;49.678;6.560;2023-09-30T04:57:11;1.38;;;1.27;;
20090;SDS011;10205;49.678;6.560;2023-09-30T04:59:38;1.75;;;1.30;;
20090;SDS011;10205;49.678;6.560;2023-09-30T05:02:05;1.40;;;1.15;;
20090;SDS011;10205;49.678;6.560;2023-09-30T05:04:34;1.75;;;1.33;;
20090;SDS011;10205;49.678;6.560;2023-09-30T05:07:01;1.55;;;1.40;;
20090;SDS011;10205;49.678;6.560;2023-09-30T05:09:29;1.60;;;1.50;;
20090;SDS011;10205;49.678;6.560;2023-09-30T05:11:56;1.45;;;1.35;;
20090;SDS011;10205;49.678;6.560;2023-09-30T05:14:23;1.58;;;1.30;;
20090;SDS011;10205;49.678;6.560;2023-09-30T05:16:52;1.67;;;1.42;;
20090;SDS011;10205;49.678;6.560;2023-09-30T05:19:21;1.58;;;1.48;;
20090;SDS011;10205;49.678;6.560;2023-09-30T05:21:50;1.35;;;1.25;;
20090;SDS011;10205;49.678;6.560;2023-09-30T05:24:17;1.35;;;1.25;;
20090;SDS011;10205;49.678;6.560;2023-09-30T05:26:46;1.48;;;1.20;;
20090;SDS011;10205;49.678;6.560;2023-09-30T05:29:13;1.42;;;1.20;;
20090;SDS011;10205;49.678;6.560;2023-09-30T05:31:41;1.48;;;1.38;;
20090;SDS011;10205;49.678;6.560;2023-09-30T05:34:10;1.40;;;1.30;;
20090;SDS011;10205;49.678;6.560;2023-09-30T05:36:37;1.33;;;1.20;;
20090;SDS011;10205;49.678;6.560;2023-09-30T05:39:06;1.25;;;1.15;;
20090;SDS011;10205;49.678;6.560;2023-09-30T05:41:35;1.10;;;1.00;;
20090;SDS011;10205;49.678;6.560;2023-09-30T05:44:03;1.13;;;1.02;;
20090;SDS011;10205;49.678;6.560;2023-09-30T05:46:32;1.35;;;1.00;;
20090;SDS011;10205;49.678;6.560;2023-09-30T05:48:59;1.38;;;1.10;;
20090;SDS011;10205;49.678;6.560;2023-09-30T05:51:26;1.30;;;1.15;;
20090;SDS011;10205;49.678;6.560;2023-09-30T05:53:54;1.30;;;1.20;;
20090;SDS011;10205;49.678;6.560;2023-09-30T05:56:22;1.23;;;1.10;;
20090;SDS011;10205;49.678;6.560;2023-09-30T05:58:50;1.20;;;1.10;;
20090;SDS011;10205;49.678;6.560;2023-09-30T06:01:17;1.48;;;1.30;;
20090;SDS011;10205;49.678;6.560;2023-09-30T06:03:45;2.47;;;1.23;;
20090;SDS011;10205;49.678;6.560;2023-09-30T06:06:13;1.20;;;1.10;;
20090;SDS011;10205;49.678;6.560;2023-09-30T06:08:41;1.35;;;1.23;;
20090;SDS011;10205;49.678;6.560;2023-09-30T06:11:15;1.40;;;1.30;;
20090;SDS011;10205;49.678;6.560;2023-09-30T06:13:50;1.67;;;1.20;;
20090;SDS011;10205;49.678;6.560;2023-09-30T06:16:18;1.35;;;1.20;;
20090;SDS011;10205;49.678;6.560;2023-09-30T06:18:45;1.42;;;1.23;;
20090;SDS011;10205;49.678;6.560;2023-09-30T06:21:13;1.30;;;1.20;;
20090;SDS011;10205;49.678;6.560;2023-09-30T06:23:43;1.65;;;1.20;;
20090;SDS011;10205;49.678;6.560;2023-09-30T06:26:10;1.10;;;1.00;;
20090;SDS011;10205;49.678;6.560;2023-09-30T06:28:37;1.20;;;1.10;;
20090;SDS011;10205;49.678;6.560;2023-09-30T06:31:07;1.67;;;1.40;;
20090;SDS011;10205;49.678;6.560;2023-09-30T06:33:35;1.35;;;1.13;;
20090;SDS011;10205;49.678;6.560;2023-09-30T06:36:07;1.55;;;1.42;;
20090;SDS011;10205;49.678;6.560;2023-09-30T06:38:35;1.17;;;1.02;;
20090;SDS011;10205;49.678;6.560;2023-09-30T06:41:03;1.25;;;1.15;;
20090;SDS011;10205;49.678;6.560;2023-09-30T06:43:30;1.30;;;1.15;;
20090;SDS011;10205;49.678;6.560;2023-09-30T06:45:58;1.25;;;1.15;;
20090;SDS011;10205;49.678;6.560;2023-09-30T06:48:26;1.35;;;1.23;;
20090;SDS011;10205;49.678;6.560;2023-09-30T06:50:53;1.20;;;1.10;;
20090;SDS011;10205;49.678;6.560;2023-09-30T06:53:20;1.42;;;1.20;;
20090;SDS011;10205;49.678;6.560;2023-09-30T06:55:48;1.55;;;1.30;;
20090;SDS011;10205;49.678;6.560;2023-09-30T06:58:16;1.40;;;1.13;;
20090;SDS011;10205;49.678;6.560;2023-09-30T07:00:46;1.40;;;1.10;;
20090;SDS011;10205;49.678;6.560;2023-09-30T07:03:15;1.60;;;1.08;;
20090;SDS011;10205;49.678;6.560;2023-09-30T07:05:46;1.50;;;1.40;;
20090;SDS011;10205;49.678;6.560;2023-09-30T07:08:16;1.33;;;1.20;;
20090;SDS011;10205;49.678;6.560;2023-09-30T07:10:43;2.05;;;1.65;;
20090;SDS011;10205;49.678;6.560;2023-09-30T07:13:14;1.45;;;1.20;;
20090;SDS011;10205;49.678;6.560;2023-09-30T07:15:43;1.13;;;1.02;;
20090;SDS011;10205;49.678;6.560;2023-09-30T07:18:10;1.30;;;1.20;;
20090;SDS011;10205;49.678;6.560;2023-09-30T07:20:38;1.73;;;1.23;;
20090;SDS011;10205;49.678;6.560;2023-09-30T07:23:07;1.30;;;1.20;;
20090;SDS011;10205;49.678;6.560;2023-09-30T07:25:34;1.50;;;1.20;;
20090;SDS011;10205;49.678;6.560;2023-09-30T07:28:03;1.35;;;1.25;;
20090;SDS011;10205;49.678;6.560;2023-09-30T07:30:36;1.40;;;1.30;;
20090;SDS011;10205;49.678;6.560;2023-09-30T07:33:04;1.83;;;1.52;;
20090;SDS011;10205;49.678;6.560;2023-09-30T07:35:32;1.52;;;1.20;;
20090;SDS011;10205;49.678;6.560;2023-09-30T07:38:00;2.58;;;1.10;;
20090;SDS011;10205;49.678;6.560;2023-09-30T07:40:31;1.35;;;1.25;;
20090;SDS011;10205;49.678;6.560;2023-09-30T07:42:58;1.30;;;1.17;;
20090;SDS011;10205;49.678;6.560;2023-09-30T07:45:28;0.95;;;0.82;;
20090;SDS011;10205;49.678;6.560;2023-09-30T07:47:56;1.40;;;1.30;;
20090;SDS011;10205;49.678;6.560;2023-09-30T07:50:24;1.50;;;1.20;;
20090;SDS011;10205;49.678;6.560;2023-09-30T07:52:51;1.40;;;1.13;;
20090;SDS011;10205;49.678;6.560;2023-09-30T07:55:18;1.20;;;1.10;;
20090;SDS011;10205;49.678;6.560;2023-09-30T07:57:47;1.63;;;1.00;;
20090;SDS011;10205;49.678;6.560;2023-09-30T08:00:14;1.58;;;1.30;;
20090;SDS011;10205;49.678;6.560;2023-09-30T08:02:42;1.70;;;1.42;;
20090;SDS011;10205;49.678;6.560;2023-09-30T08:05:09;1.30;;;1.17;;
20090;SDS011;10205;49.678;6.560;2023-09-30T08:07:37;2.03;;;1.23;;
20090;SDS011;10205;49.678;6.560;2023-09-30T08:10:04;1.60;;;1.10;;
20090;SDS011;10205;49.678;6.560;2023-09-30T08:12:38;1.10;;;1.00;;
20090;SDS011;10205;49.678;6.560;2023-09-30T08:15:08;1.10;;;1.00;;
20090;SDS011;10205;49.678;6.560;2023-09-30T08:17:36;1.35;;;1.13;;
20090;SDS011;10205;49.678;6.560;2023-09-30T08:20:04;1.20;;;1.10;;
20090;SDS011;10205;49.678;6.560;2023-09-30T08:22:33;2.33;;;1.10;;
20090;SDS011;10205;49.678;6.560;2023-09-30T08:25:01;1.60;;;1.10;;
20090;SDS011;10205;49.678;6.560;2023-09-30T08:27:28;1.50;;;1.40;;
20090;SDS011;10205;49.678;6.560;2023-09-30T08:29:57;1.08;;;0.90;;
20090;SDS011;10205;49.678;6.560;2023-09-30T08:32:25;1.45;;;1.13;;
20090;SDS011;10205;49.678;6.560;2023-09-30T08:34:52;1.27;;;1.17;;
20090;SDS011;10205;49.678;6.560;2023-09-30T08:37:19;2.75;;;1.50;;
20090;SDS011;10205;49.678;6.560;2023-09-30T08:39:47;1.48;;;1.38;;
20090;SDS011;10205;49.678;6.560;2023-09-30T08:42:15;1.30;;;1.20;;
20090;SDS011;10205;49.678;6.560;2023-09-30T08:44:45;1.30;;;1.20;;
20090;SDS011;10205;49.678;6.560;2023-09-30T08:47:14;1.40;;;1.30;;
20090;SDS011;10205;49.678;6.560;2023-09-30T08:49:43;1.98;;;1.23;;
20090;SDS011;10205;49.678;6.560;2023-09-30T08:52:10;1.40;;;1.30;;
20090;SDS011;10205;49.678;6.560;2023-09-30T08:54:40;1.30;;;1.10;;
20090;SDS011;10205;49.678;6.560;2023-09-30T08:57:08;1.75;;;1.10;;
20090;SDS011;10205;49.678;6.560;2023-09-30T08:59:36;1.30;;;1.20;;
20090;SDS011;10205;49.678;6.560;2023-09-30T09:02:07;1.30;;;1.20;;
20090;SDS011;10205;49.678;6.560;2023-09-30T09:04:36;1.88;;;1.58;;
20090;SDS011;10205;49.678;6.560;2023-09-30T09:07:05;1.15;;;1.05;;
20090;SDS011;10205;49.678;6.560;2023-09-30T09:09:32;1.58;;;1.45;;
20090;SDS011;10205;49.678;6.560;2023-09-30T09:11:59;1.30;;;1.20;;
20090;SDS011;10205;49.678;6.560;2023-09-30T09:14:36;1.65;;;1.40;;
20090;SDS011;10205;49.678;6.560;2023-09-30T09:17:06;1.30;;;1.20;;
20090;SDS011;10205;49.678;6.560;2023-09-30T09:19:34;1.48;;;1.33;;
20090;SDS011;10205;49.678;6.560;2023-09-30T09:22:02;1.67;;;1.42;;
20090;SDS011;10205;49.678;6.560;2023-09-30T09:24:32;1.40;;;1.30;;
20090;SDS011;10205;49.678;6.560;2023-09-30T09:27:04;2.63;;;1.30;;
20090;SDS011;10205;49.678;6.560;2023-09-30T09:29:32;1.40;;;1.30;;
20090;SDS011;10205;49.678;6.560;2023-09-30T09:32:07;1.80;;;1.40;;
20090;SDS011;10205;49.678;6.560;2023-09-30T09:34:39;1.95;;;1.30;;
20090;SDS011;10205;49.678;6.560;2023-09-30T09:37:16;2.40;;;1.70;;
20090;SDS011;10205;49.678;6.560;2023-09-30T09:39:49;1.83;;;1.65;;
20090;SDS011;10205;49.678;6.560;2023-09-30T09:42:24;2.10;;;1.58;;
20090;SDS011;10205;49.678;6.560;2023-09-30T09:44:54;1.65;;;1.45;;
20090;SDS011;10205;49.678;6.560;2023-09-30T09:47:23;3.20;;;1.60;;
20090;SDS011;10205;49.678;6.560;2023-09-30T09:49:52;1.95;;;1.75;;
20090;SDS011;10205;49.678;6.560;2023-09-30T09:52:22;1.70;;;1.55;;
20090;SDS011;10205;49.678;6.560;2023-09-30T09:54:51;1.63;;;1.52;;
20090;SDS011;10205;49.678;6.560;2023-09-30T09:57:22;3.53;;;1.85;;
20090;SDS011;10205;49.678;6.560;2023-09-30T09:59:52;4.18;;;2.38;;
20090;SDS011;10205;49.678;6.560;2023-09-30T10:02:21;2.15;;;1.70;;
20090;SDS011;10205;49.678;6.560;2023-09-30T10:04:48;2.05;;;1.77;;
20090;SDS011;10205;49.678;6.560;2023-09-30T10:07:18;2.60;;;2.15;;
20090;SDS011;10205;49.678;6.560;2023-09-30T10:09:53;2.42;;;2.08;;
20090;SDS011;10205;49.678;6.560;2023-09-30T10:12:26;3.10;;;2.50;;
20090;SDS011;10205;49.678;6.560;2023-09-30T10:14:54;1.98;;;1.77;;
20090;SDS011;10205;49.678;6.560;2023-09-30T10:17:21;2.42;;;2.20;;
20090;SDS011;10205;49.678;6.560;2023-09-30T10:20:26;3.33;;;2.38;;
20090;SDS011;10205;49.678;6.560;2023-09-30T10:26:15;2.50;;;1.95;;
20090;SDS011;10205;49.678;6.560;2023-09-30T10:28:43;2.53;;;2.17;;
20090;SDS011;10205;49.678;6.560;2023-09-30T10:31:14;2.60;;;1.98;;
20090;SDS011;10205;49.678;6.560;2023-09-30T10:36:48;2.63;;;1.95;;
20090;SDS011;10205;49.678;6.560;2023-09-30T10:51:09;3.45;;;2.10;;
20090;SDS011;10205;49.678;6.560;2023-09-30T10:53:45;3.70;;;2.15;;
20090;SDS011;10205;49.678;6.560;2023-09-30T10:56:18;3.95;;;2.40;;
20090;SDS011;10205;49.678;6.560;2023-09-30T10:58:46;2.95;;;2.20;;
20090;SDS011;10205;49.678;6.560;2023-09-30T11:01:16;2.97;;;2.38;;
20090;SDS011;10205;49.678;6.560;2023-09-30T11:03:45;3.38;;;2.58;;
20090;SDS011;10205;49.678;6.560;2023-09-30T11:06:15;2.90;;;2.38;;
20090;SDS011;10205;49.678;6.560;2023-09-30T11:08:49;3.38;;;2.38;;
20090;SDS011;10205;49.678;6.560;2023-09-30T11:11:21;3.25;;;2.63;;
20090;SDS011;10205;49.678;6.560;2023-09-30T11:14:00;3.20;;;2.30;;
20090;SDS011;10205;49.678;6.560;2023-09-30T11:16:27;2.97;;;2.22;;
20090;SDS011;10205;49.678;6.560;2023-09-30T11:18:55;3.30;;;2.60;;
20090;SDS011;10205;49.678;6.560;2023-09-30T11:21:22;3.08;;;2.05;;
20090;SDS011;10205;49.678;6.560;2023-09-30T11:23:50;3.35;;;2.47;;
20090;SDS011;10205;49.678;6.560;2023-09-30T11:26:22;1.90;;;1.80;;
20090;SDS011;10205;49.678;6.560;2023-09-30T11:29:04;4.32;;;2.97;;
20090;SDS011;10205;49.678;6.560;2023-09-30T11:31:33;3.42;;;2.65;;
20090;SDS011;10205;49.678;6.560;2023-09-30T11:34:03;3.78;;;2.60;;
20090;SDS011;10205;49.678;6.560;2023-09-30T11:36:33;2.97;;;2.25;;
20090;SDS011;10205;49.678;6.560;2023-09-30T11:39:01;3.05;;;2.30;;
20090;SDS011;10205;49.678;6.560;2023-09-30T11:41:34;3.95;;;2.70;;
20090;SDS011;10205;49.678;6.560;2023-09-30T11:44:04;3.40;;;2.38;;
20090;SDS011;10205;49.678;6.560;2023-09-30T11:46:49;3.53;;;2.35;;
20090;SDS011;10205;49.678;6.560;2023-09-30T11:49:25;4.70;;;2.25;;
20090;SDS011;10205;49.678;6.560;2023-09-30T11:51:58;4.03;;;2.63;;
20090;SDS011;10205;49.678;6.560;2023-09-30T11:54:28;3.33;;;2.08;;
20090;SDS011;10205;49.678;6.560;2023-09-30T11:56:58;3.08;;;2.30;;
20090;SDS011;10205;49.678;6.560;2023-09-30T11:59:26;4.38;;;2.58;;
20090;SDS011;10205;49.678;6.560;2023-09-30T12:01:54;4.57;;;2.88;;
20090;SDS011;10205;49.678;6.560;2023-09-30T12:04:21;3.38;;;2.45;;
20090;SDS011;10205;49.678;6.560;2023-09-30T12:06:49;4.43;;;2.60;;
20090;SDS011;10205;49.678;6.560;2023-09-30T12:09:17;3.65;;;2.47;;
20090;SDS011;10205;49.678;6.560;2023-09-30T12:11:47;3.25;;;2.42;;
20090;SDS011;10205;49.678;6.560;2023-09-30T12:14:16;2.75;;;2.28;;
20090;SDS011;10205;49.678;6.560;2023-09-30T12:16:43;3.00;;;2.35;;
20090;SDS011;10205;49.678;6.560;2023-09-30T12:19:12;3.83;;;2.60;;
20090;SDS011;10205;49.678;6.560;2023-09-30T12:21:40;3.60;;;2.47;;
20090;SDS011;10205;49.678;6.560;2023-09-30T12:24:08;4.32;;;2.72;;
20090;SDS011;10205;49.678;6.560;2023-09-30T12:26:35;3.72;;;2.70;;
20090;SDS011;10205;49.678;6.560;2023-09-30T12:29:05;3.83;;;2.25;;
20090;SDS011;10205;49.678;6.560;2023-09-30T12:31:35;3.28;;;2.50;;
20090;SDS011;10205;49.678;6.560;2023-09-30T12:34:03;4.07;;;2.53;;
20090;SDS011;10205;49.678;6.560;2023-09-30T12:36:30;4.00;;;2.75;;
20090;SDS011;10205;49.678;6.560;2023-09-30T12:38:57;4.00;;;2.72;;
20090;SDS011;10205;49.678;6.560;2023-09-30T12:41:25;3.67;;;2.67;;
20090;SDS011;10205;49.678;6.560;2023-09-30T12:43:52;3.75;;;2.45;;
20090;SDS011;10205;49.678;6.560;2023-09-30T12:46:19;5.75;;;3.08;;
20090;SDS011;10205;49.678;6.560;2023-09-30T12:48:47;4.78;;;2.63;;
20090;SDS011;10205;49.678;6.560;2023-09-30T12:51:14;3.95;;;2.78;;
20090;SDS011;10205;49.678;6.560;2023-09-30T12:53:42;5.05;;;2.88;;
20090;SDS011;10205;49.678;6.560;2023-09-30T12:56:10;4.38;;;2.60;;
20090;SDS011;10205;49.678;6.560;2023-09-30T12:58:37;3.85;;;2.60;;
20090;SDS011;10205;49.678;6.560;2023-09-30T13:01:04;4.55;;;2.70;;
20090;SDS011;10205;49.678;6.560;2023-09-30T13:03:32;7.13;;;2.97;;
20090;SDS011;10205;49.678;6.560;2023-09-30T13:06:02;4.53;;;2.67;;
20090;SDS011;10205;49.678;6.560;2023-09-30T13:08:29;4.00;;;2.63;;
20090;SDS011;10205;49.678;6.560;2023-09-30T13:10:59;5.63;;;3.10;;
20090;SDS011;10205;49.678;6.560;2023-09-30T13:13:27;3.75;;;2.85;;
20090;SDS011;10205;49.678;6.560;2023-09-30T13:15:55;4.15;;;2.92;;
20090;SDS011;10205;49.678;6.560;2023-09-30T13:18:23;4.40;;;3.08;;
20090;SDS011;10205;49.678;6.560;2023-09-30T13:20:50;5.93;;;3.00;;
20090;SDS011;10205;49.678;6.560;2023-09-30T13:23:19;3.95;;;2.75;;
20090;SDS011;10205;49.678;6.560;2023-09-30T13:25:46;3.22;;;2.28;;
20090;SDS011;10205;49.678;6.560;2023-09-30T13:28:13;3.00;;;2.25;;
20090;SDS011;10205;49.678;6.560;2023-09-30T13:30:41;3.78;;;2.75;;
20090;SDS011;10205;49.678;6.560;2023-09-30T13:33:08;4.00;;;2.70;;
20090;SDS011;10205;49.678;6.560;2023-09-30T13:35:35;4.30;;;2.95;;
20090;SDS011;10205;49.678;6.560;2023-09-30T13:38:03;5.13;;;2.92;;
20090;SDS011;10205;49.678;6.560;2023-09-30T13:40:32;4.28;;;2.97;;
20090;SDS011;10205;49.678;6.560;2023-09-30T13:42:59;4.25;;;2.67;;
20090;SDS011;10205;49.678;6.560;2023-09-30T13:45:26;4.40;;;2.60;;
20090;SDS011;10205;49.678;6.560;2023-09-30T13:47:53;4.10;;;2.75;;
20090;SDS011;10205;49.678;6.560;2023-09-30T13:50:20;6.28;;;3.33;;
20090;SDS011;10205;49.678;6.560;2023-09-30T13:52:48;4.47;;;2.95;;
20090;SDS011;10205;49.678;6.560;2023-09-30T13:55:15;3.75;;;2.70;;
20090;SDS011;10205;49.678;6.560;2023-09-30T13:57:45;4.07;;;2.97;;
20090;SDS011;10205;49.678;6.560;2023-09-30T14:00:12;3.78;;;2.47;;
20090;SDS011;10205;49.678;6.560;2023-09-30T14:02:41;4.15;;;2.63;;
20090;SDS011;10205;49.678;6.560;2023-09-30T14:05:09;5.03;;;2.92;;
20090;SDS011;10205;49.678;6.560;2023-09-30T14:07:38;3.92;;;2.60;;
20090;SDS011;10205;49.678;6.560;2023-09-30T14:10:06;4.43;;;2.63;;
20090;SDS011;10205;49.678;6.560;2023-09-30T14:12:35;5.07;;;3.08;;
20090;SDS011;10205;49.678;6.560;2023-09-30T14:15:04;4.45;;;2.88;;
20090;SDS011;10205;49.678;6.560;2023-09-30T14:17:33;4.82;;;2.90;;
20090;SDS011;10205;49.678;6.560;2023-09-30T14:20:01;3.40;;;2.42;;
20090;SDS011;10205;49.678;6.560;2023-09-30T14:22:30;5.40;;;2.78;;
20090;SDS011;10205;49.678;6.560;2023-09-30T14:24:57;4.15;;;2.70;;
20090;SDS011;10205;49.678;6.560;2023-09-30T14:27:24;3.80;;;2.92;;
20090;SDS011;10205;49.678;6.560;2023-09-30T14:29:51;4.05;;;2.67;;
20090;SDS011;10205;49.678;6.560;2023-09-30T14:32:20;3.55;;;2.45;;
20090;SDS011;10205;49.678;6.560;2023-09-30T14:34:48;3.60;;;2.50;;
20090;SDS011;10205;49.678;6.560;2023-09-30T14:37:15;3.97;;;2.50;;
20090;SDS011;10205;49.678;6.560;2023-09-30T14:39:42;5.72;;;3.20;;
20090;SDS011;10205;49.678;6.560;2023-09-30T14:42:09;3.97;;;3.00;;
20090;SDS011;10205;49.678;6.560;2023-09-30T14:44:36;3.67;;;2.28;;
20090;SDS011;10205;49.678;6.560;2023-09-30T14:47:04;3.90;;;2.60;;
20090;SDS011;10205;49.678;6.560;2023-09-30T14:49:32;3.92;;;2.70;;
20090;SDS011;10205;49.678;6.560;2023-09-30T14:52:00;4.75;;;2.88;;
20090;SDS011;10205;49.678;6.560;2023-09-30T14:54:28;4.47;;;2.80;;
20090;SDS011;10205;49.678;6.560;2023-09-30T14:56:55;3.25;;;2.50;;
20090;SDS011;10205;49.678;6.560;2023-09-30T14:59:23;4.25;;;2.55;;
20090;SDS011;10205;49.678;6.560;2023-09-30T15:01:50;3.58;;;2.42;;
20090;SDS011;10205;49.678;6.560;2023-09-30T15:04:19;3.70;;;2.72;;
20090;SDS011;10205;49.678;6.560;2023-09-30T15:06:47;4.03;;;2.90;;
20090;SDS011;10205;49.678;6.560;2023-09-30T15:09:14;4.50;;;2.70;;
20090;SDS011;10205;49.678;6.560;2023-09-30T15:11:41;4.45;;;2.65;;
20090;SDS011;10205;49.678;6.560;2023-09-30T15:14:09;4.25;;;2.55;;